Ojo Caliente, New Mexico
Current Conditions -  °F | °C
As of 9:15 AM on Sunday 23 Nov 2014 (Local Time) from KSKX Reporting Station
Overcast Overcast  
Wind Chill: 23°   Ceiling: 3300
Heat Index: 32°   Visibility: 10mi
Dew Point: 25°   Wind: 13mph
Humidity: 75%   Direction: 330°NNW
Pressure: 29.78"   Gusts: 16mph
Location:  36.3°N, 106.03°W
Report Text: KSKX 231615Z AUTO 33011G14KT 10SM BKN033 BKN044 OVC050 00/M04 A2978 RMK AO1
Loading
Personal Weather Stations






























Interactive Weather Map New forecast layout! Learn more

10-Day Weather Forecast

Advertisements
Track Severe Weather on mobile